Time;durP1;ratioP1;P1;durP2;ratioP2;P2;SDS_P1;SDS_P2;PMS_P1;PMS_P2;Temp;Humidity;BMP_temperature;BMP_pressure;BME280_temperature;BME280_humidity;BME280_pressure;Samples;Min_cycle;Max_cycle;Signal;HPM_P1;HPM_P2
2023/10/15 00:01:38;;;;;;;5.65;2.13;;;;;;;;;;5112637;28;20468;-61
2023/10/15 00:04:08;;;;;;;5.75;1.95;;;;;;;;;;5113062;28;20074;-61
2023/10/15 00:06:35;;;;;;;9.32;2.22;;;;;;;;;;5112770;28;20507;-62
2023/10/15 00:09:04;;;;;;;5.85;2.13;;;;;;;;;;5112481;28;20412;-62
2023/10/15 00:11:31;;;;;;;4.90;2.13;;;;;;;;;;5116505;28;20048;-61
2023/10/15 00:13:58;;;;;;;4.25;1.52;;;;;;;;;;5116871;28;20074;-61
2023/10/15 00:16:25;;;;;;;3.80;1.90;;;;;;;;;;5116482;28;20056;-61
2023/10/15 00:18:52;;;;;;;4.10;1.38;;;;;;;;;;5116031;28;20047;-61
2023/10/15 00:21:20;;;;;;;5.85;1.67;;;;;;;;;;5116290;28;20047;-61
2023/10/15 00:23:47;;;;;;;6.78;2.05;;;;;;;;;;5116293;28;20052;-61
2023/10/15 00:26:16;;;;;;;11.90;1.75;;;;;;;;;;5116451;28;20425;-60
2023/10/15 00:28:44;;;;;;;25.35;2.53;;;;;;;;;;5116559;28;20404;-61
2023/10/15 00:31:13;;;;;;;6.97;2.05;;;;;;;;;;5116118;28;20058;-61
2023/10/15 00:33:42;;;;;;;5.40;1.33;;;;;;;;;;5116387;28;20051;-61
2023/10/15 00:36:12;;;;;;;7.07;2.45;;;;;;;;;;5115808;28;20047;-61
2023/10/15 00:38:39;;;;;;;3.50;1.83;;;;;;;;;;5116033;28;20059;-63
2023/10/15 00:41:08;;;;;;;4.60;1.67;;;;;;;;;;5115885;28;20052;-61
2023/10/15 00:43:36;;;;;;;4.03;1.95;;;;;;;;;;5116228;28;20062;-61
2023/10/15 00:46:09;;;;;;;4.70;1.73;;;;;;;;;;5108561;28;20082;-61
2023/10/15 00:48:39;;;;;;;3.03;1.90;;;;;;;;;;5094934;28;20055;-61
2023/10/15 00:51:10;;;;;;;5.70;2.10;;;;;;;;;;5094577;28;20047;-60
2023/10/15 00:53:43;;;;;;;8.50;2.63;;;;;;;;;;5094948;28;20059;-61
2023/10/15 00:56:11;;;;;;;6.65;1.77;;;;;;;;;;5095017;28;20063;-60
2023/10/15 00:58:53;;;;;;;3.53;1.83;;;;;;;;;;5095078;28;20492;-61
2023/10/15 01:01:26;;;;;;;6.50;1.95;;;;;;;;;;5095677;28;20400;-61
2023/10/15 01:03:56;;;;;;;5.28;1.40;;;;;;;;;;5095310;28;20492;-62
2023/10/15 01:06:29;;;;;;;4.38;1.63;;;;;;;;;;5093619;28;20055;-62
2023/10/15 01:08:58;;;;;;;5.93;1.70;;;;;;;;;;5094847;28;20401;-60
2023/10/15 01:11:28;;;;;;;3.17;2.00;;;;;;;;;;5095069;28;20056;-61
2023/10/15 01:13:55;;;;;;;;;;;;;;;;;;5095609;28;20059;-61
2023/10/15 01:16:23;;;;;;;7.18;2.95;;;;;;;;;;5095255;28;20292;-61
2023/10/15 01:18:56;;;;;;;3.70;2.05;;;;;;;;;;5094577;28;20088;-61
2023/10/15 01:21:26;;;;;;;2.95;1.63;;;;;;;;;;5093310;28;20059;-61
2023/10/15 01:24:04;;;;;;;5.22;1.70;;;;;;;;;;5094742;28;20058;-62
2023/10/15 01:26:36;;;;;;;5.53;2.00;;;;;;;;;;5094564;28;20056;-62
2023/10/15 01:29:06;;;;;;;4.43;1.63;;;;;;;;;;5094185;28;20405;-62
2023/10/15 01:31:50;;;;;;;4.75;2.17;;;;;;;;;;5093104;28;20485;-62
2023/10/15 01:34:21;;;;;;;7.85;2.28;;;;;;;;;;5094169;28;20052;-62
2023/10/15 01:36:48;;;;;;;4.70;2.42;;;;;;;;;;5093979;28;20048;-62
2023/10/15 01:39:21;;;;;;;6.93;2.15;;;;;;;;;;5094502;28;20055;-61
2023/10/15 01:41:51;;;;;;;5.63;2.13;;;;;;;;;;5093756;28;20055;-62
2023/10/15 01:44:20;;;;;;;3.33;1.85;;;;;;;;;;5094222;28;20051;-62
2023/10/15 01:46:48;;;;;;;3.20;1.52;;;;;;;;;;5094317;28;20063;-61
2023/10/15 01:49:31;;;;;;;4.90;2.03;;;;;;;;;;5093865;28;20059;-62
2023/10/15 01:52:04;;;;;;;6.82;2.33;;;;;;;;;;5093650;28;20052;-62
2023/10/15 01:54:32;;;;;;;2.65;1.65;;;;;;;;;;5094318;28;20052;-61
2023/10/15 01:57:06;;;;;;;4.93;1.60;;;;;;;;;;5093462;28;20047;-62
2023/10/15 01:59:41;;;;;;;6.60;2.05;;;;;;;;;;5093900;28;20412;-61
2023/10/15 02:02:08;;;;;;;6.30;2.25;;;;;;;;;;5093812;28;20052;-62
2023/10/15 02:04:42;;;;;;;5.50;2.13;;;;;;;;;;5093629;28;20048;-62
2023/10/15 02:07:13;;;;;;;11.52;2.60;;;;;;;;;;5093713;28;20484;-62
2023/10/15 02:09:43;;;;;;;5.45;2.40;;;;;;;;;;5093928;28;20055;-62
2023/10/15 02:12:10;;;;;;;;;;;;;;;;;;5093758;28;20059;-62
2023/10/15 02:14:41;;;;;;;6.38;1.75;;;;;;;;;;5094274;28;19927;-61
2023/10/15 02:17:13;;;;;;;5.18;2.10;;;;;;;;;;5092979;28;20078;-61
2023/10/15 02:19:41;;;;;;;5.35;2.08;;;;;;;;;;5094114;28;20048;-65
2023/10/15 02:22:12;;;;;;;6.20;2.15;;;;;;;;;;5093031;28;20055;-61
2023/10/15 02:24:46;;;;;;;5.03;1.92;;;;;;;;;;5093740;28;20055;-61
2023/10/15 02:27:17;;;;;;;3.45;2.10;;;;;;;;;;5093527;28;20055;-62
2023/10/15 02:29:49;;;;;;;4.43;2.10;;;;;;;;;;5092919;28;20052;-61
2023/10/15 02:32:21;;;;;;;5.70;1.45;;;;;;;;;;5093056;28;20060;-62
2023/10/15 02:34:51;;;;;;;4.57;1.83;;;;;;;;;;5092913;28;20052;-61
2023/10/15 02:37:19;;;;;;;3.72;1.65;;;;;;;;;;5092799;28;20040;-61
2023/10/15 02:39:50;;;;;;;6.45;1.88;;;;;;;;;;5093280;28;20390;-61
2023/10/15 02:42:17;;;;;;;4.38;1.90;;;;;;;;;;5093029;28;20055;-61
2023/10/15 02:44:45;;;;;;;5.57;1.67;;;;;;;;;;5092992;28;20051;-61
2023/10/15 02:47:19;;;;;;;5.88;2.63;;;;;;;;;;5093105;28;20382;-61
2023/10/15 02:49:53;;;;;;;5.75;3.67;;;;;;;;;;5092709;28;20040;-61
2023/10/15 02:52:23;;;;;;;5.93;3.38;;;;;;;;;;5092648;28;20059;-61
2023/10/15 02:54:49;;;;;;;;;;;;;;;;;;5093142;28;20051;-62
2023/10/15 02:57:16;;;;;;;4.65;2.55;;;;;;;;;;5093114;28;19934;-62
2023/10/15 02:59:52;;;;;;;5.55;2.65;;;;;;;;;;5092482;28;20512;-61
2023/10/15 03:02:19;;;;;;;5.18;3.63;;;;;;;;;;5092063;28;20075;-61
2023/10/15 03:04:49;;;;;;;5.25;3.53;;;;;;;;;;5092572;28;20404;-61
2023/10/15 03:07:19;;;;;;;6.00;4.05;;;;;;;;;;5092591;28;20059;-61
2023/10/15 03:09:48;;;;;;;8.88;4.60;;;;;;;;;;5092396;28;20047;-61
2023/10/15 03:12:16;;;;;;;9.45;4.40;;;;;;;;;;5092567;28;20048;-62
2023/10/15 03:14:44;;;;;;;6.15;3.90;;;;;;;;;;5092279;28;20056;-61
2023/10/15 03:17:14;;;;;;;7.22;4.45;;;;;;;;;;5092145;28;20071;-61
2023/10/15 03:19:41;;;;;;;5.63;4.78;;;;;;;;;;5092054;28;20052;-61
2023/10/15 03:22:11;;;;;;;8.13;5.10;;;;;;;;;;5092189;28;20052;-61
2023/10/15 03:24:39;;;;;;;8.27;5.35;;;;;;;;;;5092416;28;20409;-61
2023/10/15 03:27:07;;;;;;;7.88;5.15;;;;;;;;;;5092176;28;20051;-61
2023/10/15 03:29:34;;;;;;;8.00;4.75;;;;;;;;;;5092008;28;20055;-61
2023/10/15 03:32:09;;;;;;;6.63;5.10;;;;;;;;;;5092103;28;20055;-61
2023/10/15 03:34:42;;;;;;;7.03;5.55;;;;;;;;;;5092078;28;20059;-61
2023/10/15 03:37:13;;;;;;;8.20;5.30;;;;;;;;;;5091955;28;20060;-61
2023/10/15 03:39:55;;;;;;;6.95;4.95;;;;;;;;;;5092010;28;20059;-61
2023/10/15 03:42:26;;;;;;;7.63;4.90;;;;;;;;;;5089541;28;20059;-61
2023/10/15 03:44:59;;;;;;;6.70;5.05;;;;;;;;;;5079740;28;20091;-61
2023/10/15 03:47:27;;;;;;;7.28;5.32;;;;;;;;;;5075956;28;20056;-62
2023/10/15 03:49:55;;;;;;;9.45;5.15;;;;;;;;;;5076077;28;20052;-61
2023/10/15 03:52:22;;;;;;;7.88;5.55;;;;;;;;;;5075632;28;20504;-61
2023/10/15 03:54:49;;;;;;;9.45;5.32;;;;;;;;;;5075801;28;20055;-61
2023/10/15 03:57:18;;;;;;;10.80;5.25;;;;;;;;;;5075952;28;20052;-61
2023/10/15 03:59:51;;;;;;;13.15;5.63;;;;;;;;;;5075624;28;20417;-60
2023/10/15 04:02:26;;;;;;;6.60;4.32;;;;;;;;;;5076016;28;20048;-61
2023/10/15 04:05:06;;;;;;;8.75;5.50;;;;;;;;;;5076114;28;20107;-61
2023/10/15 04:07:38;;;;;;;8.00;5.28;;;;;;;;;;5076084;28;20056;-61
2023/10/15 04:10:05;;;;;;;6.90;4.57;;;;;;;;;;5076145;28;20049;-61
2023/10/15 04:12:34;;;;;;;9.40;5.28;;;;;;;;;;5075723;28;20052;-61
2023/10/15 04:15:01;;;;;;;8.05;5.15;;;;;;;;;;5075994;28;20048;-62
2023/10/15 04:17:29;;;;;;;8.18;5.15;;;;;;;;;;5075629;28;20079;-61
2023/10/15 04:19:57;;;;;;;7.93;5.07;;;;;;;;;;5075667;28;20501;-61
2023/10/15 04:22:24;;;;;;;7.22;5.82;;;;;;;;;;5075280;28;20059;-61
2023/10/15 04:24:51;;;;;;;10.25;5.03;;;;;;;;;;5075632;28;20052;-61
2023/10/15 04:27:19;;;;;;;9.35;5.20;;;;;;;;;;5075508;28;20052;-61
2023/10/15 04:29:50;;;;;;;8.48;4.47;;;;;;;;;;5075335;28;20477;-61
2023/10/15 04:32:23;;;;;;;8.77;5.03;;;;;;;;;;5075658;28;20048;-60
2023/10/15 04:34:53;;;;;;;6.88;4.72;;;;;;;;;;5075449;28;20504;-60
2023/10/15 04:37:22;;;;;;;8.70;5.00;;;;;;;;;;5085256;28;20404;-61
2023/10/15 04:39:53;;;;;;;6.97;5.32;;;;;;;;;;5095393;28;20481;-60
2023/10/15 04:42:28;;;;;;;9.45;5.30;;;;;;;;;;5095076;28;20048;-61
2023/10/15 04:44:55;;;;;;;8.48;4.68;;;;;;;;;;5095325;28;20048;-60
2023/10/15 04:47:27;;;;;;;7.03;4.00;;;;;;;;;;5095002;28;20135;-61
2023/10/15 04:49:57;;;;;;;4.88;3.22;;;;;;;;;;5095225;28;20059;-61
2023/10/15 04:52:24;;;;;;;;;;;;;;;;;;5095381;28;20413;-61
2023/10/15 04:54:55;;;;;;;5.00;3.33;;;;;;;;;;5095356;28;19920;-61
2023/10/15 04:57:24;;;;;;;6.00;3.50;;;;;;;;;;5094672;28;20062;-60
2023/10/15 04:59:51;;;;;;;4.30;3.20;;;;;;;;;;5094799;28;20489;-61
2023/10/15 05:02:18;;;;;;;4.50;3.40;;;;;;;;;;5094053;28;20071;-61
2023/10/15 05:04:44;;;;;;;4.57;2.83;;;;;;;;;;5095064;28;20059;-60
2023/10/15 05:07:15;;;;;;;5.07;3.28;;;;;;;;;;5094496;28;20054;-60
2023/10/15 05:09:44;;;;;;;6.25;3.40;;;;;;;;;;5094171;28;20075;-60
2023/10/15 05:12:13;;;;;;;5.00;3.22;;;;;;;;;;5094347;28;20060;-60
2023/10/15 05:14:40;;;;;;;5.07;2.63;;;;;;;;;;5094262;28;20060;-61
2023/10/15 05:17:06;;;;;;;4.68;2.85;;;;;;;;;;5094483;28;20494;-61
2023/10/15 05:19:33;;;;;;;5.15;2.28;;;;;;;;;;5094612;28;20063;-60
2023/10/15 05:22:00;;;;;;;4.45;2.38;;;;;;;;;;5094650;28;20055;-61
2023/10/15 05:24:27;;;;;;;3.78;2.00;;;;;;;;;;5093845;28;20063;-61
2023/10/15 05:26:54;;;;;;;3.15;2.00;;;;;;;;;;5093860;28;20069;-60
2023/10/15 05:29:23;;;;;;;2.80;1.60;;;;;;;;;;5094413;28;20508;-61
2023/10/15 05:31:50;;;;;;;3.20;1.75;;;;;;;;;;5093828;28;20044;-63
2023/10/15 05:34:17;;;;;;;1.95;1.67;;;;;;;;;;5094091;28;20457;-61
2023/10/15 05:36:44;;;;;;;3.08;1.58;;;;;;;;;;5093633;28;20380;-61
2023/10/15 05:39:10;;;;;;;3.33;1.60;;;;;;;;;;5094011;28;20075;-61
2023/10/15 05:41:38;;;;;;;3.90;1.42;;;;;;;;;;5093701;28;20047;-61
2023/10/15 05:44:05;;;;;;;5.15;1.42;;;;;;;;;;5094002;28;20056;-61
2023/10/15 05:46:33;;;;;;;2.30;1.30;;;;;;;;;;5082776;28;20485;-61
2023/10/15 05:49:00;;;;;;;1.73;1.05;;;;;;;;;;5073560;28;20102;-60
2023/10/15 05:51:27;;;;;;;2.28;1.48;;;;;;;;;;5073261;28;20053;-61
2023/10/15 05:53:54;;;;;;;3.50;1.20;;;;;;;;;;5073966;28;20056;-61
2023/10/15 05:56:22;;;;;;;1.45;0.90;;;;;;;;;;5073336;28;20478;-61
2023/10/15 05:58:49;;;;;;;3.45;1.08;;;;;;;;;;5072936;28;20057;-61
2023/10/15 06:01:16;;;;;;;3.88;1.20;;;;;;;;;;5073346;28;20370;-62
2023/10/15 06:03:46;;;;;;;1.63;1.10;;;;;;;;;;5073133;28;20053;-62
2023/10/15 06:06:13;;;;;;;3.88;1.38;;;;;;;;;;5072977;28;20054;-62
2023/10/15 06:08:40;;;;;;;2.80;1.15;;;;;;;;;;5072559;28;20059;-62
2023/10/15 06:11:07;;;;;;;2.08;1.45;;;;;;;;;;5072798;28;20070;-61
2023/10/15 06:13:34;;;;;;;2.63;0.98;;;;;;;;;;5073001;28;20060;-61
2023/10/15 06:16:03;;;;;;;2.42;1.48;;;;;;;;;;5073551;28;20071;-62
2023/10/15 06:18:30;;;;;;;3.67;1.80;;;;;;;;;;5073385;28;20056;-61
2023/10/15 06:20:58;;;;;;;3.42;1.08;;;;;;;;;;5073318;28;20055;-61
2023/10/15 06:23:26;;;;;;;4.05;1.20;;;;;;;;;;5073575;28;20059;-62
2023/10/15 06:25:53;;;;;;;2.33;1.25;;;;;;;;;;5072981;28;20048;-62
2023/10/15 06:28:20;;;;;;;1.90;1.20;;;;;;;;;;5073357;28;20059;-62
2023/10/15 06:30:47;;;;;;;5.38;1.52;;;;;;;;;;5072616;28;20049;-62
2023/10/15 06:33:13;;;;;;;2.65;1.40;;;;;;;;;;5073224;28;20059;-61
2023/10/15 06:35:41;;;;;;;2.75;1.05;;;;;;;;;;5072852;28;20049;-61
2023/10/15 06:38:09;;;;;;;2.08;1.15;;;;;;;;;;5073190;28;20059;-61
2023/10/15 06:40:37;;;;;;;4.97;1.17;;;;;;;;;;5072823;28;20075;-61
2023/10/15 06:43:04;;;;;;;2.25;1.20;;;;;;;;;;5073060;28;20059;-62
2023/10/15 06:45:31;;;;;;;1.70;1.10;;;;;;;;;;5074288;28;20048;-61
2023/10/15 06:47:58;;;;;;;2.58;1.13;;;;;;;;;;5093297;28;20052;-62
2023/10/15 06:50:25;;;;;;;2.30;1.00;;;;;;;;;;5092529;28;20512;-62
2023/10/15 06:52:53;;;;;;;2.20;1.20;;;;;;;;;;5092897;28;20044;-62
2023/10/15 06:55:21;;;;;;;3.15;1.50;;;;;;;;;;5092675;28;20059;-61
2023/10/15 06:57:48;;;;;;;2.13;1.23;;;;;;;;;;5092898;28;20059;-61
2023/10/15 07:00:21;;;;;;;3.60;1.45;;;;;;;;;;5092493;28;20060;-61
2023/10/15 07:02:48;;;;;;;3.65;1.20;;;;;;;;;;5092726;28;20485;-61
2023/10/15 07:05:16;;;;;;;2.70;1.20;;;;;;;;;;5092755;28;20052;-62
2023/10/15 07:07:45;;;;;;;3.90;1.30;;;;;;;;;;5092323;28;20472;-62
2023/10/15 07:10:15;;;;;;;1.70;1.10;;;;;;;;;;5093059;28;20055;-62
2023/10/15 07:12:47;;;;;;;2.08;1.23;;;;;;;;;;5092563;28;20048;-62
2023/10/15 07:15:15;;;;;;;4.47;1.02;;;;;;;;;;5092366;28;20070;-61
2023/10/15 07:17:42;;;;;;;2.40;1.20;;;;;;;;;;5092349;28;20051;-62
2023/10/15 07:20:14;;;;;;;2.53;1.45;;;;;;;;;;5091438;28;20071;-62
2023/10/15 07:22:42;;;;;;;1.58;1.02;;;;;;;;;;5092633;28;20052;-62
2023/10/15 07:25:09;;;;;;;1.90;1.20;;;;;;;;;;5092463;28;20052;-62
2023/10/15 07:27:36;;;;;;;2.25;1.23;;;;;;;;;;5092800;28;20051;-62
2023/10/15 07:30:06;;;;;;;3.95;1.35;;;;;;;;;;5092595;28;20052;-62
2023/10/15 07:32:33;;;;;;;3.28;1.60;;;;;;;;;;5092418;28;20048;-62
2023/10/15 07:35:00;;;;;;;4.05;1.58;;;;;;;;;;5092222;28;20058;-62
2023/10/15 07:37:28;;;;;;;3.28;1.80;;;;;;;;;;5092579;28;20052;-62
2023/10/15 07:39:55;;;;;;;6.07;2.15;;;;;;;;;;5092673;28;20060;-62
2023/10/15 07:42:23;;;;;;;3.03;1.63;;;;;;;;;;5092558;28;20052;-62
2023/10/15 07:44:49;;;;;;;2.38;1.40;;;;;;;;;;5092279;28;20078;-62
2023/10/15 07:47:18;;;;;;;2.38;1.42;;;;;;;;;;5092086;28;20056;-62
2023/10/15 07:49:45;;;;;;;2.92;1.33;;;;;;;;;;5092545;28;20481;-64
2023/10/15 07:52:12;;;;;;;2.33;1.30;;;;;;;;;;5092205;28;20055;-62
2023/10/15 07:54:39;;;;;;;2.40;1.42;;;;;;;;;;5091785;28;20055;-62
2023/10/15 07:57:07;;;;;;;3.00;1.40;;;;;;;;;;5112267;28;20059;-62
2023/10/15 07:59:34;;;;;;;2.70;1.30;;;;;;;;;;5112841;28;20059;-62
2023/10/15 08:02:01;;;;;;;2.78;1.52;;;;;;;;;;5112623;28;20052;-59
2023/10/15 08:04:29;;;;;;;2.13;1.48;;;;;;;;;;5104188;28;20416;-60
2023/10/15 08:06:56;;;;;;;2.30;1.35;;;;;;;;;;5112292;28;20070;-60
2023/10/15 08:09:23;;;;;;;3.55;2.05;;;;;;;;;;5112659;28;20062;-59
2023/10/15 08:11:50;;;;;;;3.25;1.80;;;;;;;;;;5112382;28;20495;-60
2023/10/15 08:14:17;;;;;;;3.05;1.73;;;;;;;;;;5112475;28;20518;-60
2023/10/15 08:16:44;;;;;;;2.67;1.98;;;;;;;;;;5112443;28;20400;-60
2023/10/15 08:19:10;;;;;;;3.70;1.75;;;;;;;;;;5112198;28;20058;-59
2023/10/15 08:21:39;;;;;;;2.58;1.65;;;;;;;;;;5112266;28;20396;-60
2023/10/15 08:24:06;;;;;;;2.40;1.65;;;;;;;;;;5112238;28;20065;-60
2023/10/15 08:26:33;;;;;;;4.47;2.60;;;;;;;;;;5112491;28;20048;-60
2023/10/15 08:28:59;;;;;;;4.63;2.20;;;;;;;;;;5112498;28;20408;-60
2023/10/15 08:31:26;;;;;;;2.42;1.55;;;;;;;;;;5114268;28;20384;-60
2023/10/15 08:33:53;;;;;;;3.70;2.10;;;;;;;;;;5115819;28;20052;-60
2023/10/15 08:36:21;;;;;;;2.60;1.98;;;;;;;;;;5115732;28;20051;-60
2023/10/15 08:38:50;;;;;;;2.47;1.50;;;;;;;;;;5115910;28;20052;-60
2023/10/15 08:41:18;;;;;;;3.10;1.58;;;;;;;;;;5115727;28;20058;-60
2023/10/15 08:43:46;;;;;;;4.00;1.73;;;;;;;;;;5116250;28;20055;-60
2023/10/15 08:46:13;;;;;;;2.90;1.83;;;;;;;;;;5115538;28;20408;-60
2023/10/15 08:48:41;;;;;;;3.90;1.52;;;;;;;;;;5115801;28;20055;-60
2023/10/15 08:51:09;;;;;;;2.47;1.50;;;;;;;;;;5115872;28;20060;-60
2023/10/15 08:53:37;;;;;;;2.42;1.40;;;;;;;;;;5115722;28;20051;-64
2023/10/15 08:56:06;;;;;;;5.05;1.80;;;;;;;;;;5115455;28;20055;-60
2023/10/15 08:58:34;;;;;;;2.55;1.42;;;;;;;;;;5115698;28;20047;-60
2023/10/15 09:01:02;;;;;;;2.13;1.10;;;;;;;;;;5115795;28;20056;-61
2023/10/15 09:03:29;;;;;;;2.20;1.27;;;;;;;;;;5115821;28;20043;-60
2023/10/15 09:05:56;;;;;;;3.65;1.70;;;;;;;;;;5115528;28;20055;-60
2023/10/15 09:08:23;;;;;;;2.50;1.42;;;;;;;;;;5115726;28;20495;-60
2023/10/15 09:10:52;;;;;;;2.33;1.50;;;;;;;;;;5115340;28;20051;-61
2023/10/15 09:13:21;;;;;;;1.60;1.20;;;;;;;;;;5115568;28;20044;-60
2023/10/15 09:15:49;;;;;;;4.70;1.65;;;;;;;;;;5115119;28;20047;-60
2023/10/15 09:18:16;;;;;;;3.30;1.30;;;;;;;;;;5115455;28;20055;-60
2023/10/15 09:20:44;;;;;;;2.30;1.27;;;;;;;;;;5115350;28;20427;-60
2023/10/15 09:23:11;;;;;;;2.13;1.13;;;;;;;;;;5115292;28;20055;-59
2023/10/15 09:25:38;;;;;;;2.65;1.10;;;;;;;;;;5102363;27;20500;-60
2023/10/15 09:28:05;;;;;;;1.77;0.93;;;;;;;;;;5100871;28;20059;-60
2023/10/15 09:30:34;;;;;;;1.52;0.98;;;;;;;;;;5114929;28;20051;-60
2023/10/15 09:33:01;;;;;;;2.15;1.00;;;;;;;;;;5105267;28;20056;-59
2023/10/15 09:35:29;;;;;;;1.35;0.82;;;;;;;;;;5094951;27;20066;-59
2023/10/15 09:37:57;;;;;;;2.25;0.93;;;;;;;;;;5104502;27;20067;-60
2023/10/15 09:40:24;;;;;;;2.00;1.20;;;;;;;;;;5109143;28;20051;-59
2023/10/15 09:42:53;;;;;;;4.28;1.00;;;;;;;;;;5114437;27;20054;-60
2023/10/15 09:45:23;;;;;;;2.15;0.90;;;;;;;;;;5099683;28;20043;-59
2023/10/15 09:47:54;;;;;;;2.10;0.90;;;;;;;;;;5077254;28;20052;-60
2023/10/15 09:50:25;;;;;;;2.72;1.15;;;;;;;;;;5091082;28;20098;-59
2023/10/15 09:52:55;;;;;;;3.35;1.17;;;;;;;;;;5081415;28;20060;-59
2023/10/15 09:55:23;;;;;;;2.95;1.42;;;;;;;;;;5092315;28;20404;-59
2023/10/15 09:57:53;;;;;;;3.30;1.50;;;;;;;;;;5082170;28;20477;-59
2023/10/15 10:00:26;;;;;;;2.60;1.40;;;;;;;;;;5071951;28;20049;-60
2023/10/15 10:03:08;;;;;;;3.05;1.48;;;;;;;;;;5072501;28;20056;-60
2023/10/15 10:05:44;;;;;;;3.25;1.60;;;;;;;;;;5072804;28;20056;-59
2023/10/15 10:08:17;;;;;;;2.42;1.50;;;;;;;;;;5073974;28;20469;-59
2023/10/15 10:10:52;;;;;;;2.55;1.58;;;;;;;;;;5073483;28;20405;-60
2023/10/15 10:13:26;;;;;;;2.30;1.50;;;;;;;;;;5073686;28;20056;-60
2023/10/15 10:15:55;;;;;;;3.67;1.80;;;;;;;;;;5073234;28;20060;-59
2023/10/15 10:18:24;;;;;;;3.10;1.63;;;;;;;;;;5073364;28;20059;-59
2023/10/15 10:20:52;;;;;;;2.17;1.50;;;;;;;;;;5073368;28;20056;-60
2023/10/15 10:23:19;;;;;;;2.08;1.27;;;;;;;;;;5073361;28;20052;-59
2023/10/15 10:25:46;;;;;;;1.95;1.15;;;;;;;;;;5073039;28;20063;-60
2023/10/15 10:28:14;;;;;;;1.75;1.05;;;;;;;;;;5073226;28;20048;-59
2023/10/15 10:30:51;;;;;;;2.50;0.98;;;;;;;;;;5073013;28;20409;-59
2023/10/15 10:33:33;;;;;;;2.15;0.93;;;;;;;;;;5073273;28;20462;-60
2023/10/15 10:36:10;;;;;;;2.95;1.20;;;;;;;;;;5072047;28;20052;-59
2023/10/15 10:38:39;;;;;;;2.75;1.10;;;;;;;;;;5072724;28;20382;-60
2023/10/15 10:41:07;;;;;;;2.50;1.08;;;;;;;;;;5072494;28;20512;-59
2023/10/15 10:43:40;;;;;;;1.52;1.08;;;;;;;;;;5072684;28;20052;-60
2023/10/15 10:46:07;;;;;;;3.78;1.20;;;;;;;;;;5071935;28;20080;-61
2023/10/15 10:48:37;;;;;;;1.38;0.60;;;;;;;;;;5072697;28;20056;-61
2023/10/15 10:51:21;;;;;;;1.73;0.68;;;;;;;;;;5072484;28;20057;-61
2023/10/15 10:54:05;;;;;;;1.95;0.68;;;;;;;;;;5072208;28;20055;-61
2023/10/15 10:56:47;;;;;;;1.33;0.75;;;;;;;;;;5071936;28;20492;-61
2023/10/15 10:59:15;;;;;;;1.08;0.60;;;;;;;;;;5071869;28;20059;-61
2023/10/15 11:01:42;;;;;;;1.25;0.60;;;;;;;;;;5072517;28;20052;-61
2023/10/15 11:04:10;;;;;;;1.52;0.60;;;;;;;;;;5072150;28;20497;-61
2023/10/15 11:06:39;;;;;;;1.90;0.50;;;;;;;;;;5072071;28;20048;-61
2023/10/15 11:09:09;;;;;;;0.82;0.60;;;;;;;;;;5072385;28;20060;-60
2023/10/15 11:11:36;;;;;;;1.25;0.57;;;;;;;;;;5071993;28;20049;-60
2023/10/15 11:14:03;;;;;;;1.02;0.50;;;;;;;;;;5072158;28;20436;-59
2023/10/15 11:16:32;;;;;;;1.20;0.60;;;;;;;;;;5072074;28;20477;-60
2023/10/15 11:18:59;;;;;;;1.05;0.50;;;;;;;;;;5071515;28;20053;-60
2023/10/15 11:21:26;;;;;;;1.92;0.77;;;;;;;;;;5070717;28;20512;-61
2023/10/15 11:23:56;;;;;;;1.10;0.40;;;;;;;;;;5070845;28;20516;-60
2023/10/15 11:26:23;;;;;;;1.65;0.50;;;;;;;;;;5071300;28;20071;-61
2023/10/15 11:28:50;;;;;;;1.73;0.80;;;;;;;;;;5071351;28;20533;-60
2023/10/15 11:31:17;;;;;;;1.20;0.50;;;;;;;;;;5070933;28;20052;-60
2023/10/15 11:33:44;;;;;;;0.88;0.60;;;;;;;;;;5071202;28;20049;-60
2023/10/15 11:36:12;;;;;;;1.77;0.60;;;;;;;;;;5072257;28;20410;-61
2023/10/15 11:38:38;;;;;;;1.63;0.85;;;;;;;;;;5092333;28;20400;-60
2023/10/15 11:41:07;;;;;;;1.50;0.50;;;;;;;;;;5091702;28;20052;-60
2023/10/15 11:43:35;;;;;;;1.63;0.70;;;;;;;;;;5091057;28;20477;-60
2023/10/15 11:46:07;;;;;;;1.63;0.50;;;;;;;;;;5090571;28;20071;-60
2023/10/15 11:48:34;;;;;;;1.38;0.40;;;;;;;;;;5091815;28;20432;-60
2023/10/15 11:51:05;;;;;;;1.27;0.60;;;;;;;;;;5091846;28;20059;-60
2023/10/15 11:53:33;;;;;;;1.67;0.70;;;;;;;;;;5092071;28;20055;-59
2023/10/15 11:56:02;;;;;;;2.85;1.00;;;;;;;;;;5092145;28;20540;-60
2023/10/15 11:58:31;;;;;;;1.02;0.60;;;;;;;;;;5092252;28;20052;-60
2023/10/15 12:00:58;;;;;;;1.15;0.47;;;;;;;;;;5092576;28;20052;-60
2023/10/15 12:03:25;;;;;;;2.88;0.63;;;;;;;;;;5092316;28;20063;-61
2023/10/15 12:05:52;;;;;;;1.30;0.50;;;;;;;;;;5093220;28;20462;-60
2023/10/15 12:08:21;;;;;;;2.25;0.60;;;;;;;;;;5096533;28;20066;-61
2023/10/15 12:10:48;;;;;;;2.65;1.38;;;;;;;;;;5096249;28;20082;-60
2023/10/15 12:13:15;;;;;;;2.78;1.00;;;;;;;;;;5096027;28;20052;-59
2023/10/15 12:15:43;;;;;;;1.40;0.70;;;;;;;;;;5095888;28;20055;-60
2023/10/15 12:18:10;;;;;;;1.58;0.70;;;;;;;;;;5096057;28;20052;-59
2023/10/15 12:20:37;;;;;;;1.65;0.80;;;;;;;;;;5095620;28;20492;-60
2023/10/15 12:23:07;;;;;;;2.38;0.85;;;;;;;;;;5095933;28;20048;-60
2023/10/15 12:25:38;;;;;;;1.20;0.60;;;;;;;;;;5095713;28;20052;-60
2023/10/15 12:28:05;;;;;;;2.08;0.50;;;;;;;;;;5095292;28;20417;-60
2023/10/15 12:30:32;;;;;;;1.63;0.52;;;;;;;;;;5095221;28;20052;-60
2023/10/15 12:33:00;;;;;;;0.77;0.40;;;;;;;;;;5095486;28;20059;-60
2023/10/15 12:35:28;;;;;;;2.30;0.60;;;;;;;;;;5095629;28;20401;-60
2023/10/15 12:38:01;;;;;;;1.48;0.63;;;;;;;;;;5095748;28;20048;-61
2023/10/15 12:40:31;;;;;;;1.70;0.70;;;;;;;;;;5095588;28;20496;-60
2023/10/15 12:42:59;;;;;;;1.40;0.55;;;;;;;;;;5095781;28;20059;-61
2023/10/15 12:45:25;;;;;;;2.05;0.65;;;;;;;;;;5096736;28;20052;-61
2023/10/15 12:47:52;;;;;;;2.67;1.25;;;;;;;;;;5115982;28;20055;-61
2023/10/15 12:50:20;;;;;;;1.83;0.43;;;;;;;;;;5115557;28;20506;-62
2023/10/15 12:52:48;;;;;;;0.93;0.40;;;;;;;;;;5115614;28;20051;-61
2023/10/15 12:55:17;;;;;;;1.02;0.52;;;;;;;;;;5115841;28;20047;-61
2023/10/15 12:57:43;;;;;;;1.65;0.30;;;;;;;;;;5116027;28;20055;-62
2023/10/15 13:00:17;;;;;;;1.40;0.68;;;;;;;;;;5115822;28;20058;-62
2023/10/15 13:02:44;;;;;;;1.75;0.40;;;;;;;;;;5115866;28;20047;-61
2023/10/15 13:05:13;;;;;;;1.00;0.40;;;;;;;;;;5115689;28;20066;-62
2023/10/15 13:07:41;;;;;;;0.93;0.40;;;;;;;;;;5115634;28;20088;-62
2023/10/15 13:10:10;;;;;;;1.83;0.50;;;;;;;;;;5115396;28;20070;-61
2023/10/15 13:12:37;;;;;;;0.80;0.32;;;;;;;;;;5115430;28;20062;-61
2023/10/15 13:15:04;;;;;;;1.90;0.70;;;;;;;;;;5115207;28;20496;-61
2023/10/15 13:17:31;;;;;;;1.73;1.00;;;;;;;;;;5115495;28;20051;-61
2023/10/15 13:19:58;;;;;;;1.45;0.60;;;;;;;;;;5114923;28;20484;-61
2023/10/15 13:22:25;;;;;;;1.00;0.40;;;;;;;;;;5115320;28;20404;-61
2023/10/15 13:24:53;;;;;;;2.03;1.30;;;;;;;;;;5115349;28;20047;-60
2023/10/15 13:27:20;;;;;;;11.02;1.50;;;;;;;;;;5115033;28;20054;-60
2023/10/15 13:29:47;;;;;;;3.97;1.15;;;;;;;;;;5115244;28;20056;-60
2023/10/15 13:32:14;;;;;;;2.15;1.42;;;;;;;;;;5115185;28;20055;-60
2023/10/15 13:34:41;;;;;;;2.38;1.50;;;;;;;;;;5115001;28;20480;-61
2023/10/15 13:37:09;;;;;;;2.38;0.90;;;;;;;;;;5114954;28;20590;-61
2023/10/15 13:39:36;;;;;;;1.88;1.50;;;;;;;;;;5115123;28;20074;-61
2023/10/15 13:42:05;;;;;;;1.77;1.58;;;;;;;;;;5114491;28;20071;-61
2023/10/15 13:44:32;;;;;;;1.83;1.70;;;;;;;;;;5114314;28;20051;-61
2023/10/15 13:46:59;;;;;;;1.92;1.38;;;;;;;;;;5114413;28;20078;-61
2023/10/15 13:49:26;;;;;;;2.47;1.75;;;;;;;;;;5114093;28;20051;-61
2023/10/15 13:51:53;;;;;;;2.35;2.05;;;;;;;;;;5114453;28;20063;-61
2023/10/15 13:54:19;;;;;;;2.65;2.45;;;;;;;;;;5114269;28;20400;-60
2023/10/15 13:56:46;;;;;;;2.15;0.85;;;;;;;;;;5114342;28;20054;-61
2023/10/15 13:59:15;;;;;;;2.97;1.27;;;;;;;;;;5114949;28;20055;-61
2023/10/15 14:01:42;;;;;;;3.30;1.30;;;;;;;;;;5114196;28;20055;-61
2023/10/15 14:04:08;;;;;;;2.78;1.83;;;;;;;;;;5114498;28;20059;-61
2023/10/15 14:06:36;;;;;;;1.90;1.00;;;;;;;;;;5114478;28;20051;-61
2023/10/15 14:09:03;;;;;;;1.08;0.50;;;;;;;;;;5114553;28;20052;-62
2023/10/15 14:11:30;;;;;;;3.47;1.20;;;;;;;;;;5114156;28;20048;-62
2023/10/15 14:13:56;;;;;;;2.47;1.52;;;;;;;;;;5113947;28;20051;-61
2023/10/15 14:16:25;;;;;;;2.85;0.73;;;;;;;;;;5114207;28;20724;-60
2023/10/15 14:18:51;;;;;;;2.15;1.70;;;;;;;;;;5110991;28;20047;-61
2023/10/15 14:21:19;;;;;;;3.03;1.38;;;;;;;;;;5103875;27;20056;-60
2023/10/15 14:23:46;;;;;;;1.92;0.88;;;;;;;;;;5115284;27;20480;-61
2023/10/15 14:26:13;;;;;;;3.30;0.55;;;;;;;;;;5105624;28;20051;-61
2023/10/15 14:28:41;;;;;;;3.05;1.80;;;;;;;;;;5105830;27;20051;-61
2023/10/15 14:31:08;;;;;;;5.55;1.75;;;;;;;;;;5103031;27;20826;-61
2023/10/15 14:33:37;;;;;;;2.08;1.08;;;;;;;;;;5113399;27;20416;-61
2023/10/15 14:36:07;;;;;;;2.03;1.00;;;;;;;;;;5101463;27;20121;-61
2023/10/15 14:38:33;;;;;;;3.60;1.50;;;;;;;;;;5100255;27;20051;-61
2023/10/15 14:41:00;;;;;;;2.60;0.80;;;;;;;;;;5103057;28;20043;-61
2023/10/15 14:43:27;;;;;;;2.42;1.20;;;;;;;;;;5111711;27;20063;-61
2023/10/15 14:45:54;;;;;;;2.15;1.05;;;;;;;;;;5100334;27;20040;-61
2023/10/15 14:48:20;;;;;;;2.65;1.00;;;;;;;;;;5113951;27;20365;-61
2023/10/15 14:50:49;;;;;;;1.77;1.08;;;;;;;;;;5104550;27;20048;-60
2023/10/15 14:53:15;;;;;;;1.30;0.60;;;;;;;;;;5099013;27;20051;-61